Time;durP1;ratioP1;P1;durP2;ratioP2;P2;SDS_P1;SDS_P2;PMS_P1;PMS_P2;Temp;Humidity;BMP_temperature;BMP_pressure;BME280_temperature;BME280_humidity;BME280_pressure;Samples;Min_cycle;Max_cycle;Signal;HPM_P1;HPM_P2
2024/01/22 00:02:00;;;;;;;444.27;242.23;;;;;;;1.42;100.00;98729.81;4939319;28;20085;-58
2024/01/22 00:04:25;;;;;;;470.02;243.48;;;;;;;1.41;100.00;98738.34;4940833;28;20126;-58
2024/01/22 00:06:52;;;;;;;426.67;239.55;;;;;;;1.40;100.00;98732.31;4940158;28;20053;-58
2024/01/22 00:09:18;;;;;;;414.35;243.18;;;;;;;1.35;100.00;98728.69;4946227;28;20047;-59
2024/01/22 00:11:43;;;;;;;456.55;243.88;;;;;;;1.32;100.00;98727.63;4942273;28;20119;-59
2024/01/22 00:14:09;;;;;;;469.95;245.60;;;;;;;1.06;100.00;98725.63;4940421;28;20043;-60
2024/01/22 00:16:38;;;;;;;423.65;243.60;;;;;;;1.07;100.00;98724.81;4943755;28;20126;-59
2024/01/22 00:19:03;;;;;;;526.00;243.80;;;;;;;0.95;100.00;98717.47;4938037;28;20395;-59
2024/01/22 00:21:29;;;;;;;440.70;242.13;;;;;;;0.85;100.00;98713.56;4942826;28;20526;-59
2024/01/22 00:23:56;;;;;;;469.23;239.82;;;;;;;0.94;100.00;98705.47;4944706;28;20395;-60
2024/01/22 00:26:22;;;;;;;439.23;240.23;;;;;;;0.97;100.00;98692.78;4939874;28;20080;-59
2024/01/22 00:28:47;;;;;;;405.42;241.38;;;;;;;0.95;100.00;98688.38;4937788;28;20514;-58
2024/01/22 00:31:12;;;;;;;403.52;241.20;;;;;;;0.92;100.00;98686.56;4939652;28;20041;-59
2024/01/22 00:33:38;;;;;;;441.00;240.35;;;;;;;0.80;100.00;98678.31;4944936;28;20396;-58
2024/01/22 00:36:03;;;;;;;481.48;243.55;;;;;;;0.86;100.00;98679.47;4940659;28;20046;-59
2024/01/22 00:38:29;;;;;;;460.65;240.88;;;;;;;0.89;100.00;98666.81;4942512;28;20034;-59
2024/01/22 00:40:54;;;;;;;438.75;245.48;;;;;;;0.94;100.00;98669.59;4940488;28;20035;-59
2024/01/22 00:43:20;;;;;;;398.65;240.63;;;;;;;0.90;100.00;98671.13;4943715;28;20518;-59
2024/01/22 00:45:45;;;;;;;429.98;242.07;;;;;;;0.80;100.00;98665.50;4943486;28;20046;-58
2024/01/22 00:48:11;;;;;;;436.85;246.07;;;;;;;0.71;100.00;98654.03;4942335;28;20030;-58
2024/01/22 00:50:36;;;;;;;430.38;245.98;;;;;;;0.70;100.00;98653.97;4938084;28;20488;-59
2024/01/22 00:53:01;;;;;;;460.38;249.32;;;;;;;0.89;100.00;98651.44;4941042;28;20474;-58
2024/01/22 00:55:27;;;;;;;469.63;266.00;;;;;;;0.86;100.00;98648.72;4942289;28;20130;-60
2024/01/22 00:57:52;;;;;;;373.73;244.35;;;;;;;0.91;100.00;98646.41;4942824;28;20316;-58
2024/01/22 01:00:17;;;;;;;436.08;248.38;;;;;;;0.90;100.00;98652.34;4940221;28;20491;-58
2024/01/22 01:02:43;;;;;;;465.08;248.23;;;;;;;0.77;100.00;98649.19;4937141;28;20026;-58
2024/01/22 01:05:08;;;;;;;459.83;249.00;;;;;;;0.68;100.00;98646.22;4936450;28;20030;-59
2024/01/22 01:07:35;;;;;;;469.52;250.70;;;;;;;0.57;100.00;98655.06;4939857;28;20036;-58
2024/01/22 01:10:00;;;;;;;514.65;253.90;;;;;;;0.35;100.00;98657.50;4935199;28;20046;-60
2024/01/22 01:12:26;;;;;;;467.60;250.40;;;;;;;0.42;100.00;98645.88;4939433;28;20039;-59
2024/01/22 01:14:51;;;;;;;458.98;248.52;;;;;;;0.32;100.00;98636.88;4936453;28;20073;-59
2024/01/22 01:17:16;;;;;;;452.27;247.10;;;;;;;0.30;100.00;98637.59;4937972;28;20270;-58
2024/01/22 01:19:42;;;;;;;455.35;249.70;;;;;;;0.36;100.00;98628.53;4939230;28;20136;-59
2024/01/22 01:22:07;;;;;;;467.42;248.70;;;;;;;0.42;100.00;98633.06;4940021;28;20117;-60
2024/01/22 01:24:32;;;;;;;487.58;248.10;;;;;;;0.58;100.00;98636.34;4940941;28;20046;-59
2024/01/22 01:26:58;;;;;;;528.90;250.43;;;;;;;0.58;100.00;98633.78;4941011;28;20404;-58
2024/01/22 01:29:23;;;;;;;460.55;245.68;;;;;;;0.50;100.00;98631.75;4937339;28;20024;-57
2024/01/22 01:31:48;;;;;;;465.08;244.20;;;;;;;0.48;100.00;98627.38;4935113;28;20032;-58
2024/01/22 01:34:14;;;;;;;440.80;246.00;;;;;;;0.48;100.00;98622.25;4940635;28;20059;-58
2024/01/22 01:36:39;;;;;;;453.55;250.88;;;;;;;0.55;100.00;98618.28;4935194;28;20475;-57
2024/01/22 01:39:05;;;;;;;554.70;252.63;;;;;;;0.58;100.00;98600.50;4938198;28;20034;-57
2024/01/22 01:41:30;;;;;;;469.83;249.25;;;;;;;0.60;100.00;98604.88;4936511;28;20173;-59
2024/01/22 01:43:56;;;;;;;477.48;249.27;;;;;;;0.60;100.00;98607.44;4936492;28;20039;-58
2024/01/22 01:46:21;;;;;;;483.83;246.10;;;;;;;0.50;100.00;98600.16;4937710;28;20050;-59
2024/01/22 01:48:47;;;;;;;449.30;245.38;;;;;;;0.55;100.00;98595.25;4938477;28;20038;-58
2024/01/22 01:51:14;;;;;;;486.48;251.48;;;;;;;0.56;100.00;98590.16;4935662;28;20391;-57
2024/01/22 01:53:39;;;;;;;490.17;254.77;;;;;;;0.56;100.00;98579.06;4939482;28;20030;-58
2024/01/22 01:56:05;;;;;;;494.13;251.50;;;;;;;0.49;100.00;98576.22;4940373;28;20434;-58
2024/01/22 01:58:31;;;;;;;472.27;255.18;;;;;;;0.55;100.00;98567.09;4938935;28;20562;-58
2024/01/22 02:00:57;;;;;;;503.33;249.27;;;;;;;0.76;100.00;98560.38;4936150;28;20047;-57
2024/01/22 02:03:24;;;;;;;449.52;247.90;;;;;;;0.71;100.00;98554.16;4942289;28;20419;-59
2024/01/22 02:05:49;;;;;;;442.90;250.18;;;;;;;0.76;100.00;98556.94;4939656;28;20043;-59
2024/01/22 02:08:14;;;;;;;471.77;250.43;;;;;;;0.83;100.00;98558.09;4942197;28;20113;-59
2024/01/22 02:10:40;;;;;;;469.85;251.55;;;;;;;0.72;100.00;98558.50;4939351;28;20049;-58
2024/01/22 02:13:08;;;;;;;528.92;254.98;;;;;;;0.55;100.00;98567.94;4938272;28;20034;-58
2024/01/22 02:15:34;;;;;;;466.60;251.35;;;;;;;0.50;100.00;98565.19;4939774;28;20507;-59
2024/01/22 02:18:00;;;;;;;494.65;251.05;;;;;;;0.32;100.00;98561.75;4940536;28;20023;-59
2024/01/22 02:20:25;;;;;;;482.73;249.32;;;;;;;0.32;100.00;98554.97;4943019;28;20039;-58
2024/01/22 02:22:51;;;;;;;471.60;245.55;;;;;;;0.34;100.00;98547.38;4941014;28;20390;-58
2024/01/22 02:25:16;;;;;;;427.98;245.52;;;;;;;0.25;100.00;98542.69;4938445;28;20039;-58
2024/01/22 02:27:41;;;;;;;478.25;247.70;;;;;;;0.19;100.00;98550.09;4937513;28;20479;-58
2024/01/22 02:30:07;;;;;;;533.05;255.60;;;;;;;0.51;100.00;98543.91;4940529;28;20475;-58
2024/01/22 02:32:33;;;;;;;461.40;249.18;;;;;;;0.44;100.00;98552.09;4943259;28;20292;-58
2024/01/22 02:34:58;;;;;;;511.08;253.73;;;;;;;0.34;100.00;98558.47;4937332;28;20497;-59
2024/01/22 02:37:23;;;;;;;436.90;246.10;;;;;;;0.22;100.00;98551.09;4937323;28;20053;-59
2024/01/22 02:39:49;;;;;;;451.17;247.23;;;;;;;0.17;100.00;98546.56;4938808;28;20542;-57
2024/01/22 02:42:14;;;;;;;534.03;249.32;;;;;;;0.00;100.00;98541.56;4937570;28;20093;-58
2024/01/22 02:44:41;;;;;;;464.67;248.98;;;;;;;0.06;100.00;98534.16;4939303;28;20494;-58
2024/01/22 02:47:06;;;;;;;453.75;246.73;;;;;;;0.08;100.00;98534.25;4937683;28;20555;-58
2024/01/22 02:49:34;;;;;;;487.52;246.25;;;;;;;0.14;100.00;98537.06;4935995;28;20027;-58
2024/01/22 02:51:59;;;;;;;464.00;246.38;;;;;;;0.11;100.00;98537.81;4939697;28;20297;-58
2024/01/22 02:54:25;;;;;;;451.75;245.88;;;;;;;0.07;100.00;98528.22;4943189;28;20053;-58
2024/01/22 02:56:50;;;;;;;464.05;244.00;;;;;;;0.03;100.00;98526.34;4941811;28;20055;-59
2024/01/22 02:59:15;;;;;;;511.55;245.57;;;;;;;0.05;100.00;98524.75;4939199;28;20403;-59
2024/01/22 03:01:41;;;;;;;427.88;241.65;;;;;;;0.04;100.00;98522.09;4939237;28;20067;-58
2024/01/22 03:04:06;;;;;;;511.50;251.35;;;;;;;-0.07;100.00;98521.59;4939331;28;20071;-59
2024/01/22 03:06:32;;;;;;;445.15;232.88;;;;;;;-0.12;100.00;98523.06;4942303;28;20237;-58
2024/01/22 03:08:57;;;;;;;447.85;237.65;;;;;;;-0.15;100.00;98511.88;4939686;28;20026;-58
2024/01/22 03:11:23;;;;;;;455.20;242.48;;;;;;;0.01;100.00;98520.28;4936151;28;20035;-59
2024/01/22 03:13:49;;;;;;;430.17;230.75;;;;;;;0.02;100.00;98528.81;4943077;28;20119;-58
2024/01/22 03:16:14;;;;;;;480.05;240.85;;;;;;;0.09;100.00;98529.19;4941486;28;20628;-59
2024/01/22 03:18:39;;;;;;;481.58;240.13;;;;;;;-0.01;100.00;98538.09;4938791;28;20464;-58
2024/01/22 03:21:05;;;;;;;487.33;231.77;;;;;;;-0.05;100.00;98533.66;4941500;28;20635;-57
2024/01/22 03:23:30;;;;;;;449.77;233.45;;;;;;;-0.21;100.00;98544.84;4940150;28;20082;-57
2024/01/22 03:25:56;;;;;;;433.30;230.70;;;;;;;-0.25;100.00;98542.03;4940122;28;20188;-58
2024/01/22 03:28:21;;;;;;;472.20;237.93;;;;;;;-0.30;100.00;98532.47;4937288;28;20093;-59
2024/01/22 03:30:47;;;;;;;439.67;234.93;;;;;;;-0.25;100.00;98535.25;4937139;28;20049;-58
2024/01/22 03:33:12;;;;;;;504.48;240.23;;;;;;;-0.10;100.00;98524.00;4940424;28;20435;-57
2024/01/22 03:35:38;;;;;;;420.98;229.27;;;;;;;-0.04;100.00;98520.06;4937613;28;20046;-59
2024/01/22 03:38:03;;;;;;;501.15;238.63;;;;;;;0.07;100.00;98512.88;4940697;28;20482;-58
2024/01/22 03:40:29;;;;;;;488.73;238.70;;;;;;;0.16;100.00;98515.00;4940216;28;20526;-59
2024/01/22 03:42:54;;;;;;;437.05;236.60;;;;;;;0.22;100.00;98511.88;4939154;28;20031;-59
2024/01/22 03:45:19;;;;;;;433.42;235.05;;;;;;;0.15;100.00;98505.56;4937796;28;20371;-58
2024/01/22 03:47:45;;;;;;;458.13;239.27;;;;;;;0.52;100.00;98507.25;4938900;28;20042;-58
2024/01/22 03:50:10;;;;;;;514.28;243.68;;;;;;;0.65;100.00;98495.00;4938458;28;20030;-58
2024/01/22 03:52:36;;;;;;;459.45;240.00;;;;;;;0.75;100.00;98498.84;4937562;28;20019;-58
2024/01/22 03:55:02;;;;;;;502.17;241.70;;;;;;;0.82;100.00;98489.75;4938215;28;20075;-58
2024/01/22 03:57:27;;;;;;;440.20;240.95;;;;;;;0.98;100.00;98494.72;4941203;28;20047;-59
2024/01/22 03:59:53;;;;;;;437.25;242.02;;;;;;;1.03;100.00;98495.81;4936844;28;20043;-60
2024/01/22 04:02:18;;;;;;;539.15;243.57;;;;;;;0.93;100.00;98491.09;4940246;28;20062;-59
2024/01/22 04:04:43;;;;;;;446.95;248.35;;;;;;;0.96;100.00;98477.56;4940867;28;20126;-58
2024/01/22 04:07:09;;;;;;;523.85;244.52;;;;;;;0.95;100.00;98476.66;4935121;28;20042;-58
2024/01/22 04:09:34;;;;;;;482.08;244.23;;;;;;;0.92;100.00;98473.97;4933486;28;20495;-59
2024/01/22 04:11:59;;;;;;;466.90;242.10;;;;;;;0.93;100.00;98473.19;4935535;28;20034;-59
2024/01/22 04:14:25;;;;;;;442.55;240.73;;;;;;;1.10;100.00;98466.19;4936025;28;20513;-60
2024/01/22 04:16:51;;;;;;;477.60;245.88;;;;;;;1.11;100.00;98457.69;4936917;28;20060;-59
2024/01/22 04:19:16;;;;;;;525.67;244.73;;;;;;;1.02;100.00;98441.94;4937543;28;20027;-58
2024/01/22 04:21:46;;;;;;;456.33;238.60;;;;;;;1.01;100.00;98433.34;4941316;28;20099;-58
2024/01/22 04:24:12;;;;;;;565.15;249.15;;;;;;;0.98;100.00;98435.81;4937081;28;20033;-58
2024/01/22 04:26:37;;;;;;;456.58;242.80;;;;;;;1.05;100.00;98444.63;4936721;28;20047;-58
2024/01/22 04:29:02;;;;;;;477.15;238.05;;;;;;;0.97;100.00;98446.00;4934710;28;20551;-57
2024/01/22 04:31:28;;;;;;;510.45;243.30;;;;;;;0.96;100.00;98439.97;4935036;28;20044;-57
2024/01/22 04:33:54;;;;;;;466.00;247.18;;;;;;;0.92;100.00;98432.97;4938671;28;20475;-59
2024/01/22 04:36:19;;;;;;;519.30;242.43;;;;;;;1.03;100.00;98436.00;4935825;28;20054;-58
2024/01/22 04:38:45;;;;;;;478.63;243.02;;;;;;;1.03;100.00;98433.44;4939690;28;20305;-58
2024/01/22 04:41:10;;;;;;;527.50;243.52;;;;;;;1.12;100.00;98425.25;4937576;28;20030;-58
2024/01/22 04:43:35;;;;;;;436.15;238.38;;;;;;;1.09;100.00;98426.03;4934939;28;20271;-59
2024/01/22 04:46:01;;;;;;;502.13;242.82;;;;;;;1.02;100.00;98427.44;4936706;28;20058;-58
2024/01/22 04:48:26;;;;;;;489.58;242.65;;;;;;;1.03;100.00;98433.44;4941090;28;20042;-58
2024/01/22 04:50:52;;;;;;;419.33;238.60;;;;;;;0.88;100.00;98438.78;4935538;28;20046;-58
2024/01/22 04:53:17;;;;;;;560.28;248.43;;;;;;;0.88;100.00;98444.78;4936900;28;20114;-58
2024/01/22 04:55:43;;;;;;;448.88;240.88;;;;;;;0.84;100.00;98436.91;4938470;28;20046;-58
2024/01/22 04:58:08;;;;;;;497.40;244.35;;;;;;;0.93;100.00;98431.31;4934267;28;20077;-58
2024/01/22 05:00:33;;;;;;;491.38;243.02;;;;;;;1.13;100.00;98430.47;4933936;28;20038;-58
2024/01/22 05:03:04;;;;;;;447.15;242.10;;;;;;;1.29;100.00;98424.25;4938707;28;20065;-59
2024/01/22 05:05:29;;;;;;;457.67;240.20;;;;;;;1.48;100.00;98431.84;4938741;28;20275;-59
2024/01/22 05:07:55;;;;;;;472.10;241.93;;;;;;;1.59;100.00;98435.69;4939399;28;20270;-58
2024/01/22 05:10:20;;;;;;;518.30;243.30;;;;;;;1.67;100.00;98424.03;4936575;28;20031;-58
2024/01/22 05:12:45;;;;;;;434.05;238.50;;;;;;;1.63;100.00;98419.59;4940513;28;20019;-58
2024/01/22 05:15:12;;;;;;;573.70;249.02;;;;;;;1.94;100.00;98404.53;4935885;28;20023;-58
2024/01/22 05:17:38;;;;;;;477.10;244.40;;;;;;;1.95;100.00;98403.72;4939453;28;20074;-58
2024/01/22 05:20:04;;;;;;;477.90;243.93;;;;;;;2.02;100.00;98410.81;4940187;28;20035;-58
2024/01/22 05:22:30;;;;;;;516.13;301.27;;;;;;;1.91;100.00;98391.59;4937072;28;20035;-58
2024/01/22 05:24:55;;;;;;;460.40;238.57;;;;;;;2.15;100.00;98395.91;4942262;28;20406;-57
2024/01/22 05:27:20;;;;;;;561.78;243.95;;;;;;;2.25;100.00;98405.66;4940181;28;20472;-57
2024/01/22 05:29:46;;;;;;;456.13;281.17;;;;;;;2.27;100.00;98382.63;4940101;28;20127;-58
2024/01/22 05:32:11;;;;;;;499.63;244.00;;;;;;;2.40;100.00;98389.06;4936837;28;20046;-59
2024/01/22 05:34:37;;;;;;;491.02;242.43;;;;;;;2.33;100.00;98381.16;4943979;28;20034;-59
2024/01/22 05:37:02;;;;;;;516.10;248.98;;;;;;;2.37;100.00;98373.56;4939219;28;20042;-58
2024/01/22 05:39:28;;;;;;;504.63;244.15;;;;;;;2.23;100.00;98376.50;4937085;28;20020;-58
2024/01/22 05:41:54;;;;;;;492.85;243.75;;;;;;;2.39;100.00;98383.06;4938203;28;20039;-58
2024/01/22 05:44:19;;;;;;;537.70;232.98;;;;;;;2.34;100.00;98382.88;4939064;28;20407;-58
2024/01/22 05:46:45;;;;;;;435.15;216.35;;;;;;;2.47;100.00;98376.50;4937944;28;20574;-59
2024/01/22 05:49:10;;;;;;;517.13;219.70;;;;;;;2.55;100.00;98376.78;4937752;28;20387;-58
2024/01/22 05:51:36;;;;;;;474.52;214.13;;;;;;;2.50;100.00;98373.19;4935943;28;20066;-58
2024/01/22 05:54:02;;;;;;;439.42;211.55;;;;;;;2.54;100.00;98366.44;4939973;28;20023;-57
2024/01/22 05:56:28;;;;;;;442.83;211.57;;;;;;;2.52;100.00;98368.94;4938470;28;20061;-56
2024/01/22 05:58:54;;;;;;;486.02;206.35;;;;;;;2.61;100.00;98355.56;4941725;28;20400;-58
2024/01/22 06:01:25;;;;;;;534.35;216.70;;;;;;;2.73;100.00;98355.09;4942614;28;20115;-57
2024/01/22 06:03:51;;;;;;;460.08;209.93;;;;;;;2.76;100.00;98339.81;4940719;28;20026;-58
2024/01/22 06:06:17;;;;;;;513.03;208.43;;;;;;;2.61;100.00;98337.59;4938808;28;20554;-57
2024/01/22 06:08:43;;;;;;;448.08;207.23;;;;;;;2.81;100.00;98332.25;4939777;28;20574;-57
2024/01/22 06:11:09;;;;;;;465.52;206.88;;;;;;;2.86;100.00;98336.72;4937259;28;20058;-57
2024/01/22 06:13:44;;;;;;;473.67;211.55;;;;;;;2.73;100.00;98320.03;4940441;28;20537;-58
2024/01/22 06:16:12;;;;;;;478.95;222.65;;;;;;;2.74;100.00;98323.44;4934787;28;20135;-58
2024/01/22 06:18:39;;;;;;;482.80;219.00;;;;;;;2.76;100.00;98318.38;4940851;28;20236;-59
2024/01/22 06:21:05;;;;;;;437.08;206.02;;;;;;;2.83;100.00;98323.75;4936405;28;20036;-57
2024/01/22 06:23:31;;;;;;;435.80;214.95;;;;;;;2.68;100.00;98311.28;4938035;28;20577;-57
2024/01/22 06:25:57;;;;;;;453.67;211.30;;;;;;;2.76;100.00;98320.94;4940487;28;20483;-58
2024/01/22 06:28:24;;;;;;;575.17;218.95;;;;;;;2.81;100.00;98314.25;4937259;28;20035;-59
2024/01/22 06:30:49;;;;;;;411.88;211.98;;;;;;;2.71;100.00;98311.38;4939015;28;20558;-59
2024/01/22 06:33:14;;;;;;;504.33;216.85;;;;;;;2.72;100.00;98302.84;4937481;28;20159;-60
2024/01/22 06:35:40;;;;;;;457.48;214.98;;;;;;;2.68;100.00;98295.84;4939512;28;20414;-58
2024/01/22 06:38:05;;;;;;;468.42;219.57;;;;;;;2.66;100.00;98286.38;4935987;28;20026;-58
2024/01/22 06:40:31;;;;;;;468.05;223.00;;;;;;;2.74;100.00;98279.78;4937598;28;20028;-59
2024/01/22 06:42:56;;;;;;;428.55;215.65;;;;;;;2.80;100.00;98273.97;4940267;28;20065;-58
2024/01/22 06:45:22;;;;;;;556.72;220.30;;;;;;;2.76;100.00;98272.13;4938810;28;20391;-58
2024/01/22 06:47:47;;;;;;;440.45;218.05;;;;;;;2.85;100.00;98264.72;4930430;28;20236;-58
2024/01/22 06:50:12;;;;;;;530.05;220.25;;;;;;;2.83;100.00;98244.13;4927628;28;20042;-57
2024/01/22 06:52:38;;;;;;;452.00;216.35;;;;;;;2.96;100.00;98259.91;4941999;28;20475;-59
2024/01/22 06:55:05;;;;;;;473.75;214.50;;;;;;;2.96;100.00;98263.38;4939742;28;20019;-58
2024/01/22 06:57:30;;;;;;;468.10;227.10;;;;;;;3.12;100.00;98235.59;4936835;28;20043;-59
2024/01/22 06:59:56;;;;;;;526.15;305.92;;;;;;;3.26;100.00;98233.41;4939291;28;20027;-59
2024/01/22 07:02:27;;;;;;;509.55;209.02;;;;;;;3.34;100.00;98237.09;4936078;28;20506;-57
2024/01/22 07:04:55;;;;;;;452.40;229.07;;;;;;;3.38;100.00;98245.78;4941916;28;20399;-59
2024/01/22 07:07:20;;;;;;;589.42;219.05;;;;;;;3.50;100.00;98251.25;4935474;28;20035;-57
2024/01/22 07:09:45;;;;;;;433.80;207.00;;;;;;;3.47;100.00;98243.47;4939111;28;20023;-59
2024/01/22 07:12:11;;;;;;;460.27;209.07;;;;;;;3.61;100.00;98235.28;4939853;28;20521;-57
2024/01/22 07:14:36;;;;;;;490.60;210.90;;;;;;;3.61;100.00;98238.69;4940322;28;20529;-58
2024/01/22 07:17:03;;;;;;;448.92;205.45;;;;;;;3.72;100.00;98243.31;4939718;28;20050;-58
2024/01/22 07:19:28;;;;;;;508.23;209.88;;;;;;;3.85;100.00;98232.53;4935710;28;20317;-60
2024/01/22 07:21:53;;;;;;;463.92;208.07;;;;;;;3.99;100.00;98227.75;4937440;28;20031;-60
2024/01/22 07:24:19;;;;;;;525.50;221.07;;;;;;;3.98;100.00;98220.88;4940618;28;20024;-61
2024/01/22 07:26:46;;;;;;;433.35;202.10;;;;;;;4.08;100.00;98221.09;4937705;28;20066;-59
2024/01/22 07:29:12;;;;;;;486.48;208.57;;;;;;;4.14;100.00;98223.81;4936757;28;20027;-60
2024/01/22 07:31:37;;;;;;;440.85;208.73;;;;;;;4.23;100.00;98213.75;4938533;28;20038;-61
2024/01/22 07:34:02;;;;;;;445.15;211.15;;;;;;;4.42;100.00;98220.25;4938592;28;20407;-61
2024/01/22 07:36:28;;;;;;;598.17;218.18;;;;;;;4.29;100.00;98220.78;4935040;28;20459;-60
2024/01/22 07:38:56;;;;;;;483.52;210.13;;;;;;;4.62;100.00;98219.88;4941612;28;20418;-59
2024/01/22 07:41:21;;;;;;;559.10;238.50;;;;;;;4.69;100.00;98229.47;4938611;28;20042;-61
2024/01/22 07:43:47;;;;;;;491.50;213.63;;;;;;;4.87;100.00;98228.22;4939447;28;20105;-59
2024/01/22 07:46:12;;;;;;;482.23;211.73;;;;;;;5.14;100.00;98216.78;4935476;28;20105;-59
2024/01/22 07:48:39;;;;;;;462.33;209.60;;;;;;;5.17;100.00;98221.13;4938141;28;20066;-60
2024/01/22 07:51:05;;;;;;;493.58;210.15;;;;;;;5.13;100.00;98230.50;4936641;28;20039;-60
2024/01/22 07:53:30;;;;;;;502.52;210.02;;;;;;;5.03;100.00;98234.56;4935983;28;20028;-60
2024/01/22 07:55:55;;;;;;;460.45;207.30;;;;;;;5.17;100.00;98234.00;4936074;28;20046;-59
2024/01/22 07:58:21;;;;;;;602.90;214.15;;;;;;;5.20;100.00;98236.66;4941673;28;20019;-59
2024/01/22 08:00:46;;;;;;;498.40;307.88;;;;;;;5.37;100.00;98231.88;4934538;28;20027;-61
2024/01/22 08:03:11;;;;;;;455.60;239.13;;;;;;;5.45;100.00;98234.59;4938438;28;20038;-59
2024/01/22 08:05:37;;;;;;;511.45;209.18;;;;;;;5.46;99.95;98241.53;4936595;28;20053;-58
2024/01/22 08:08:03;;;;;;;474.50;209.50;;;;;;;5.42;94.15;98250.88;4937271;28;20037;-60
2024/01/22 08:10:28;;;;;;;576.60;218.57;;;;;;;5.48;97.44;98242.41;4937439;28;20039;-59
2024/01/22 08:12:53;;;;;;;468.02;208.05;;;;;;;5.50;98.52;98238.16;4933944;28;20020;-59
2024/01/22 08:15:19;;;;;;;553.92;214.35;;;;;;;5.55;100.00;98230.50;4933521;28;20578;-59
2024/01/22 08:17:46;;;;;;;459.35;210.18;;;;;;;5.31;97.35;98230.03;4940113;28;20031;-60
2024/01/22 08:20:12;;;;;;;503.48;227.05;;;;;;;5.46;96.81;98231.19;4941231;28;20031;-59
2024/01/22 08:22:37;;;;;;;474.98;210.25;;;;;;;5.59;93.40;98217.72;4936702;28;20011;-61
2024/01/22 08:25:03;;;;;;;464.73;203.90;;;;;;;5.36;90.33;98219.81;4938343;28;20022;-59
2024/01/22 08:27:29;;;;;;;607.53;213.52;;;;;;;5.47;90.94;98217.47;4934400;28;20044;-60
2024/01/22 08:29:54;;;;;;;458.75;203.35;;;;;;;5.34;91.77;98206.88;4938434;28;20462;-60
2024/01/22 08:32:19;;;;;;;558.15;208.90;;;;;;;5.21;91.30;98190.25;4937556;28;20067;-59
2024/01/22 08:34:45;;;;;;;478.10;203.75;;;;;;;5.22;95.07;98196.31;4938470;28;20386;-58
2024/01/22 08:37:10;;;;;;;458.98;204.63;;;;;;;5.30;95.00;98170.66;4938640;28;20038;-60
2024/01/22 08:39:35;;;;;;;455.92;206.52;;;;;;;5.41;98.43;98178.63;4934673;28;20019;-60
2024/01/22 08:42:01;;;;;;;497.58;208.98;;;;;;;5.14;94.72;98174.63;4937783;28;20142;-59
2024/01/22 08:44:26;;;;;;;545.22;211.40;;;;;;;5.33;92.51;98168.16;4937335;28;20058;-60
2024/01/22 08:46:52;;;;;;;463.05;208.60;;;;;;;5.37;92.66;98164.81;4935378;28;20047;-60
2024/01/22 08:49:17;;;;;;;578.13;214.23;;;;;;;5.44;97.21;98163.22;4933917;28;20103;-59
2024/01/22 08:51:42;;;;;;;465.55;209.32;;;;;;;5.64;100.00;98157.59;4936496;28;20369;-61
2024/01/22 08:54:08;;;;;;;464.77;211.70;;;;;;;5.89;100.00;98148.56;4936179;28;21136;-59
2024/01/22 08:56:34;;;;;;;523.13;211.63;;;;;;;5.81;100.00;98145.88;4934144;28;20070;-60
2024/01/22 08:58:59;;;;;;;486.63;208.95;;;;;;;5.59;100.00;98149.75;4940676;28;20551;-60
2024/01/22 09:01:25;;;;;;;543.33;211.90;;;;;;;5.78;100.00;98150.97;4938976;28;20336;-60
2024/01/22 09:03:50;;;;;;;464.90;208.18;;;;;;;5.78;95.65;98144.91;4944332;28;20042;-58
2024/01/22 09:06:15;;;;;;;427.88;200.63;;;;;;;5.74;93.85;98138.84;4942195;28;20403;-58
2024/01/22 09:08:41;;;;;;;441.83;203.85;;;;;;;5.92;95.70;98134.84;4943828;28;20055;-59
2024/01/22 09:11:07;;;;;;;463.02;204.45;;;;;;;5.96;93.55;98150.44;4941259;28;20230;-60
2024/01/22 09:13:33;;;;;;;548.17;210.60;;;;;;;6.00;93.86;98151.34;4943657;28;20026;-59
2024/01/22 09:15:58;;;;;;;417.80;204.43;;;;;;;6.14;100.00;98135.25;4944302;28;20055;-60
2024/01/22 09:18:24;;;;;;;535.72;209.55;;;;;;;6.27;100.00;98139.78;4946681;28;20036;-59
2024/01/22 09:20:51;;;;;;;420.55;201.55;;;;;;;6.17;98.60;98148.22;4943699;28;20473;-57
2024/01/22 09:23:17;;;;;;;429.45;198.13;;;;;;;6.20;95.29;98149.13;4941726;28;20023;-59
2024/01/22 09:25:43;;;;;;;472.98;205.88;;;;;;;6.57;100.00;98146.28;4944194;28;20074;-57
2024/01/22 09:28:08;;;;;;;422.50;201.55;;;;;;;6.50;100.00;98131.53;4944114;28;20058;-57
2024/01/22 09:30:34;;;;;;;571.53;210.90;;;;;;;6.40;95.22;98122.78;4941733;28;20185;-58
2024/01/22 09:32:59;;;;;;;482.40;206.65;;;;;;;6.40;94.43;98130.50;4944930;28;20445;-59
2024/01/22 09:35:26;;;;;;;544.20;207.15;;;;;;;6.51;91.08;98128.09;4945311;28;20037;-58
2024/01/22 09:37:52;;;;;;;437.00;203.82;;;;;;;6.70;88.87;98133.53;4944189;28;20023;-58
2024/01/22 09:40:17;;;;;;;466.05;206.93;;;;;;;6.79;88.49;98125.06;4945814;28;20042;-60
2024/01/22 09:42:44;;;;;;;441.63;202.57;;;;;;;6.92;93.87;98116.63;4943605;28;20019;-60
2024/01/22 09:45:10;;;;;;;439.15;202.98;;;;;;;6.80;88.90;98116.44;4943134;28;20031;-59
2024/01/22 09:47:37;;;;;;;577.35;212.70;;;;;;;6.49;86.31;98097.06;4940558;28;20114;-57
2024/01/22 09:50:03;;;;;;;441.65;203.18;;;;;;;6.52;93.14;98119.50;4941565;28;20078;-57
2024/01/22 09:52:32;;;;;;;570.42;207.27;;;;;;;6.68;92.17;98115.41;4941347;28;20442;-57
2024/01/22 09:54:58;;;;;;;421.73;201.68;;;;;;;6.83;89.60;98109.59;4945340;28;20027;-57
2024/01/22 09:57:27;;;;;;;497.10;207.95;;;;;;;6.86;88.20;98101.88;4941052;28;20050;-57
2024/01/22 09:59:53;;;;;;;448.48;200.15;;;;;;;6.87;84.90;98101.03;4942154;28;20438;-57
2024/01/22 10:02:19;;;;;;;416.65;214.52;;;;;;;6.18;84.92;98113.78;4943126;28;20521;-58
2024/01/22 10:04:45;;;;;;;436.27;218.13;;;;;;;5.85;87.81;98108.06;4943451;28;20035;-60
2024/01/22 10:07:13;;;;;;;470.63;210.85;;;;;;;6.11;88.69;98097.34;4947564;28;20522;-61
2024/01/22 10:09:38;;;;;;;440.30;209.93;;;;;;;6.41;87.62;98101.25;4938214;28;20027;-59
2024/01/22 10:12:04;;;;;;;471.17;293.77;;;;;;;6.36;87.21;98097.72;4944291;28;20028;-60
2024/01/22 10:14:42;;;;;;;564.33;216.27;;;;;;;6.35;88.47;98098.59;4941363;28;20031;-60
2024/01/22 10:17:17;;;;;;;423.73;210.32;;;;;;;6.41;88.93;98092.63;4944116;28;20058;-58
2024/01/22 10:19:44;;;;;;;471.10;207.15;;;;;;;6.47;89.11;98088.44;4939642;28;20034;-57
2024/01/22 10:22:10;;;;;;;430.40;207.68;;;;;;;6.44;88.86;98082.34;4944850;28;20031;-57
2024/01/22 10:24:35;;;;;;;523.42;203.68;;;;;;;6.49;89.25;98078.97;4939957;28;20042;-59
2024/01/22 10:27:14;;;;;;;695.85;371.45;;;;;;;6.72;89.12;98072.41;4941402;28;20035;-58
2024/01/22 10:29:39;;;;;;;424.30;191.20;;;;;;;6.70;90.36;98082.72;4938415;28;21582;-58
2024/01/22 10:32:05;;;;;;;456.48;184.00;;;;;;;7.19;91.14;98075.56;4941845;28;20123;-59
2024/01/22 10:34:41;;;;;;;529.95;185.45;;;;;;;7.47;92.93;98065.50;4938318;28;20497;-58
2024/01/22 10:37:08;;;;;;;395.50;164.00;;;;;;;7.81;100.00;98079.66;4941720;28;20047;-59
2024/01/22 10:39:38;;;;;;;572.33;178.07;;;;;;;7.94;100.00;98067.69;4943261;28;20019;-60
2024/01/22 10:42:07;;;;;;;425.83;171.75;;;;;;;8.42;100.00;98058.50;4955601;28;20043;-59
2024/01/22 10:44:32;;;;;;;551.85;184.73;;;;;;;8.21;100.00;98053.19;4939707;28;20608;-58
2024/01/22 10:47:01;;;;;;;416.05;174.60;;;;;;;8.15;100.00;98047.97;4944037;28;20052;-59
2024/01/22 10:49:27;;;;;;;542.15;232.82;;;;;;;7.92;100.00;98042.63;4942826;28;20031;-58
2024/01/22 10:51:54;;;;;;;464.15;185.02;;;;;;;8.10;100.00;98044.50;4944571;28;20039;-57
2024/01/22 10:54:20;;;;;;;405.05;179.68;;;;;;;8.17;100.00;98038.47;4941637;28;20028;-58
2024/01/22 10:56:51;;;;;;;412.38;173.63;;;;;;;8.56;100.00;98048.25;4941325;28;20030;-59